»·PEaware :: N573CG KBOS-KJFK

N573CG :: KBOS-KJFK

FLIGHT INFORMATION

Flight Status: Arrived
Operator: Privately registered:
United States
More flights under this callsign
Pilot: Colin L. (27704)
Aircraft: CIRRUS VISIONJET
(SF50)
More flights by this aircraft type
Origin: KBOS Logan Intl
United States
Destination: KJFK Kennedy Intl
United States
More flights between these airports :: More routes between these airports
Route: LOGAN2 SEY ROBER2
File this flight plan on PilotEdge
Remarks:
Altitude:
(Current/Filed)
20,000ft
Speed:
(Current/Filed)
200kts
Departed: 18-Apr-20 12:52 PM
Arrived: 18-Apr-20 01:42 PM
Distance/Time
Traveled:
162nm/0:49
Distance/Time
To Go:
Arrived

Flight Plot

Page will automatically refresh every two minutes.

Flight plan parsing failed; only flown route is shown


Map Options




Map Legend


Flown Route
Filed Route
Departure Airport
Arrival Airport
Navaid (VOR, NDB)
Fix

Horizontal Profiles

Position Reports

Time Latitude Longitude Heading Altitude Ground
Speed
18-Apr-20 12:35 42.373690 -71.020051 315 11ft 0kts
18-Apr-20 12:36 42.373690 -71.020051 315 11ft 0kts
18-Apr-20 12:37 42.373690 -71.020051 315 11ft 0kts
18-Apr-20 12:38 42.373690 -71.020051 315 11ft 0kts
18-Apr-20 12:39 42.373690 -71.020051 315 11ft 0kts
18-Apr-20 12:40 42.373690 -71.020051 315 11ft 0kts
18-Apr-20 12:41 42.373690 -71.020051 315 11ft 0kts
18-Apr-20 12:42 42.373690 -71.020051 315 11ft 0kts
18-Apr-20 12:43 42.373690 -71.020051 315 11ft 0kts
18-Apr-20 12:44 42.374299 -71.020019 109 11ft 4kts
18-Apr-20 12:45 42.370367 -71.014747 135 10ft 15kts
18-Apr-20 12:46 42.367540 -71.011374 178 11ft 12kts
18-Apr-20 12:47 42.364654 -71.012698 198 14ft 11kts
18-Apr-20 12:48 42.358876 -71.015485 199 16ft 23kts
18-Apr-20 12:49 42.354981 -71.017228 169 14ft 15kts
18-Apr-20 12:50 42.353525 -71.015123 301 14ft 6kts
18-Apr-20 12:51 42.357755 -71.016016 19 15ft 69kts
18-Apr-20 12:52 42.401754 -70.990842 22 1583ft 245kts
18-Apr-20 12:53 42.462660 -70.937980 71 3609ft 288kts
18-Apr-20 12:54 42.477076 -70.839354 75 4991ft 247kts
18-Apr-20 12:55 42.445187 -70.775588 192 6777ft 283kts
18-Apr-20 12:56 42.392124 -70.849087 234 9210ft 278kts
18-Apr-20 12:57 42.361829 -70.940148 238 11210ft 272kts
18-Apr-20 12:58 42.291202 -70.978932 202 13241ft 279kts
18-Apr-20 12:59 42.218001 -71.009090 202 15221ft 279kts
18-Apr-20 13:00 42.146608 -71.036765 202 17161ft 273kts
18-Apr-20 13:01 42.074575 -71.063027 202 19155ft 266kts
18-Apr-20 13:02 42.001083 -71.088984 202 19817ft 295kts
18-Apr-20 13:03 41.919165 -71.119485 202 19803ft 313kts
18-Apr-20 13:04 41.834595 -71.151485 202 19798ft 317kts
18-Apr-20 13:05 41.749860 -71.183658 202 19801ft 317kts
18-Apr-20 13:06 41.664888 -71.215988 202 19798ft 318kts
18-Apr-20 13:07 41.579777 -71.248442 202 19792ft 318kts
18-Apr-20 13:08 41.494881 -71.280818 202 19795ft 318kts
18-Apr-20 13:09 41.409974 -71.313294 205 19794ft 317kts
18-Apr-20 13:10 41.337954 -71.374588 220 19790ft 307kts
18-Apr-20 13:11 41.268967 -71.440122 224 19783ft 305kts
18-Apr-20 13:12 41.202364 -71.509750 224 19777ft 304kts
18-Apr-20 13:13 41.152093 -71.591116 277 19791ft 288kts
18-Apr-20 13:14 41.152268 -71.694770 262 19801ft 289kts
18-Apr-20 13:15 41.139616 -71.800538 262 19808ft 290kts
18-Apr-20 13:16 41.126422 -71.906175 262 19808ft 290kts
18-Apr-20 13:17 41.113098 -72.011734 262 19808ft 290kts
18-Apr-20 13:18 41.099570 -72.116986 259 19809ft 289kts
18-Apr-20 13:19 41.075241 -72.218012 254 19813ft 286kts
18-Apr-20 13:20 41.050523 -72.317460 254 19818ft 282kts
18-Apr-20 13:21 41.026123 -72.415435 254 19825ft 277kts
18-Apr-20 13:22 41.001708 -72.512954 255 17892ft 284kts
18-Apr-20 13:23 40.976919 -72.611629 255 15350ft 276kts
18-Apr-20 13:24 40.953580 -72.704154 255 12845ft 260kts
18-Apr-20 13:25 40.930746 -72.791493 245 11795ft 252kts
18-Apr-20 13:26 40.873884 -72.852340 224 11241ft 280kts
18-Apr-20 13:27 40.812379 -72.911369 223 9636ft 264kts
18-Apr-20 13:28 40.753838 -72.967323 223 8793ft 254kts
18-Apr-20 13:29 40.693985 -73.026312 236 8786ft 262kts
18-Apr-20 13:30 40.680211 -73.115183 267 8792ft 251kts
18-Apr-20 13:31 40.668033 -73.209681 255 8024ft 277kts
18-Apr-20 13:32 40.631035 -73.301922 247 6926ft 290kts
18-Apr-20 13:33 40.595313 -73.389273 247 5810ft 247kts
18-Apr-20 13:34 40.559018 -73.468589 242 3865ft 257kts
18-Apr-20 13:35 40.531779 -73.553308 276 1902ft 246kts
18-Apr-20 13:36 40.557125 -73.617796 302 1825ft 190kts
18-Apr-20 13:37 40.583486 -73.674138 302 1826ft 176kts
18-Apr-20 13:38 40.602057 -73.714752 305 1217ft 112kts
18-Apr-20 13:39 40.618350 -73.750494 304 602ft 115kts
18-Apr-20 13:40 40.631946 -73.780599 306 92ft 79kts
18-Apr-20 13:41 40.638205 -73.792544 93 16ft 13kts
18-Apr-20 13:42 40.638193 -73.792025 90 16ft 0kts
18-Apr-20 13:43 40.638407 -73.791219 29 16ft 0kts

Navigation Log

Ident Type
Flight plan parsing failed, navigation log unavailable